This is the latest recevied weather packets stored in our database for station/object DC4AT. If no packets are shown the sender has not sent any weather packets the latest 10 day(s).
| Time | Temp. | Humidity | Pressure | Rain* | Wind** | Luminosity | Snow |
|---|---|---|---|---|---|---|---|
| 1777787621 | 11.67° C | 74% | 1013.1 hPa | 0 mm | - | 135 W/m² | - |
| 1777787021 | 11.67° C | 76% | 1013.2 hPa | 0 mm | - | 79 W/m² | - |
| 1777786421 | 11.11° C | 78% | 1013.2 hPa | 0 mm | - | 44 W/m² | - |
| 1777785821 | 10.56° C | 82% | 1013.2 hPa | 0 mm | - | 46 W/m² | - |
| 1777785221 | 10° C | 84% | 1013.1 hPa | 0 mm | - | 47 W/m² | - |
| 1777784621 | 9.44° C | 83% | 1013.3 hPa | 0 mm | - | 49 W/m² | - |
| 1777784021 | 8.89° C | 84% | 1013.4 hPa | 0 mm | - | 40 W/m² | - |
| 1777783421 | 8.89° C | 83% | 1013.4 hPa | 0 mm | - | 25 W/m² | - |
| 1777782821 | 8.89° C | 83% | 1013.4 hPa | 0 mm | - | 16 W/m² | - |
| 1777782221 | 8.89° C | 83% | 1013.5 hPa | 0 mm | - | 14 W/m² | - |
| 1777781621 | 8.89° C | 83% | 1013.5 hPa | 0 mm | - | 12 W/m² | - |
| 1777781021 | 9.44° C | 83% | 1013.6 hPa | 0 mm | - | 7 W/m² | - |
| 1777780421 | 9.44° C | 82% | 1013.6 hPa | 0 mm | - | 0 W/m² | - |
| 1777779821 | 9.44° C | 81% | 1013.6 hPa | 0 mm | - | 0 W/m² | - |
| 1777779221 | 9.44° C | 80% | 1013.7 hPa | 0 mm | - | 0 W/m² | - |
| 1777778621 | 10° C | 79% | 1013.6 hPa | 0 mm | - | 0 W/m² | - |
| 1777778021 | 10° C | 79% | 1013.6 hPa | 0 mm | - | 0 W/m² | - |
| 1777777421 | 10° C | 81% | 1013.6 hPa | 0 mm | - | 0 W/m² | - |
| 1777776821 | 10° C | 80% | 1013.6 hPa | 0 mm | - | 0 W/m² | - |
| 1777776221 | 10.56° C | 79% | 1013.6 hPa | 0 mm | - | 0 W/m² | - |
| 1777775621 | 10.56° C | 78% | 1013.6 hPa | 0 mm | - | 0 W/m² | - |
| 1777775021 | 10.56° C | 78% | 1013.7 hPa | 0 mm | - | 0 W/m² | - |
| 1777774421 | 11.11° C | 76% | 1013.7 hPa | 0 mm | - | 0 W/m² | - |
| 1777773821 | 11.67° C | 74% | 1013.8 hPa | 0 mm | - | 0 W/m² | - |
| 1777773221 | 12.22° C | 73% | 1013.8 hPa | 0 mm | - | 0 W/m² | - |
* Rain latest hour (hover to see other rain measurements)
** Current wind speed in m/s (hover to see current wind gust speed)